sensor_id;sensor_type;location;lat;lon;timestamp;P1;durP1;ratioP1;P2;durP2;ratioP2
69310;SDS011;56430;48.154;16.458;2022-11-03T00:00:09;7.00;;;2.20;;
69310;SDS011;56430;48.154;16.458;2022-11-03T00:02:37;7.40;;;1.90;;
69310;SDS011;56430;48.154;16.458;2022-11-03T00:05:04;7.70;;;2.22;;
69310;SDS011;56430;48.154;16.458;2022-11-03T00:07:46;6.60;;;2.10;;
69310;SDS011;56430;48.154;16.458;2022-11-03T00:10:13;8.38;;;2.20;;
69310;SDS011;56430;48.154;16.458;2022-11-03T00:12:40;7.60;;;2.00;;
69310;SDS011;56430;48.154;16.458;2022-11-03T00:15:09;8.03;;;1.87;;
69310;SDS011;56430;48.154;16.458;2022-11-03T00:17:36;7.90;;;1.77;;
69310;SDS011;56430;48.154;16.458;2022-11-03T00:20:04;6.63;;;2.05;;
69310;SDS011;56430;48.154;16.458;2022-11-03T00:22:32;8.00;;;2.22;;
69310;SDS011;56430;48.154;16.458;2022-11-03T00:24:59;8.00;;;1.70;;
69310;SDS011;56430;48.154;16.458;2022-11-03T00:27:26;6.17;;;2.00;;
69310;SDS011;56430;48.154;16.458;2022-11-03T00:29:53;6.68;;;2.67;;
69310;SDS011;56430;48.154;16.458;2022-11-03T00:32:22;7.28;;;1.95;;
69310;SDS011;56430;48.154;16.458;2022-11-03T00:34:49;6.70;;;1.90;;
69310;SDS011;56430;48.154;16.458;2022-11-03T00:37:16;7.45;;;2.05;;
69310;SDS011;56430;48.154;16.458;2022-11-03T00:39:43;6.43;;;2.00;;
69310;SDS011;56430;48.154;16.458;2022-11-03T00:42:11;7.22;;;2.10;;
69310;SDS011;56430;48.154;16.458;2022-11-03T00:44:38;4.05;;;1.80;;
69310;SDS011;56430;48.154;16.458;2022-11-03T00:47:05;6.07;;;2.13;;
69310;SDS011;56430;48.154;16.458;2022-11-03T00:49:34;7.47;;;1.80;;
69310;SDS011;56430;48.154;16.458;2022-11-03T00:52:01;10.93;;;2.00;;
69310;SDS011;56430;48.154;16.458;2022-11-03T00:54:28;8.15;;;2.10;;
69310;SDS011;56430;48.154;16.458;2022-11-03T00:56:55;5.85;;;2.30;;
69310;SDS011;56430;48.154;16.458;2022-11-03T00:59:22;8.57;;;2.20;;
69310;SDS011;56430;48.154;16.458;2022-11-03T01:01:50;8.60;;;2.63;;
69310;SDS011;56430;48.154;16.458;2022-11-03T01:04:17;6.83;;;2.50;;
69310;SDS011;56430;48.154;16.458;2022-11-03T01:07:03;8.13;;;2.72;;
69310;SDS011;56430;48.154;16.458;2022-11-03T01:09:33;7.18;;;2.20;;
69310;SDS011;56430;48.154;16.458;2022-11-03T01:12:02;8.20;;;2.42;;
69310;SDS011;56430;48.154;16.458;2022-11-03T01:14:32;10.50;;;2.63;;
69310;SDS011;56430;48.154;16.458;2022-11-03T01:17:00;7.37;;;2.57;;
69310;SDS011;56430;48.154;16.458;2022-11-03T01:19:27;10.25;;;2.95;;
69310;SDS011;56430;48.154;16.458;2022-11-03T01:21:55;8.20;;;2.75;;
69310;SDS011;56430;48.154;16.458;2022-11-03T01:24:23;9.43;;;2.90;;
69310;SDS011;56430;48.154;16.458;2022-11-03T01:26:50;5.43;;;2.40;;
69310;SDS011;56430;48.154;16.458;2022-11-03T01:29:18;8.83;;;2.70;;
69310;SDS011;56430;48.154;16.458;2022-11-03T01:31:45;9.85;;;2.75;;
69310;SDS011;56430;48.154;16.458;2022-11-03T01:34:13;6.25;;;2.70;;
69310;SDS011;56430;48.154;16.458;2022-11-03T01:36:42;8.73;;;2.58;;
69310;SDS011;56430;48.154;16.458;2022-11-03T01:39:10;10.18;;;2.70;;
69310;SDS011;56430;48.154;16.458;2022-11-03T01:41:39;8.33;;;2.63;;
69310;SDS011;56430;48.154;16.458;2022-11-03T01:44:26;10.20;;;2.53;;
69310;SDS011;56430;48.154;16.458;2022-11-03T01:47:02;7.28;;;2.25;;
69310;SDS011;56430;48.154;16.458;2022-11-03T01:49:34;5.85;;;2.60;;
69310;SDS011;56430;48.154;16.458;2022-11-03T01:52:05;7.63;;;2.08;;
69310;SDS011;56430;48.154;16.458;2022-11-03T01:54:34;6.37;;;2.00;;
69310;SDS011;56430;48.154;16.458;2022-11-03T01:57:04;6.53;;;2.15;;
69310;SDS011;56430;48.154;16.458;2022-11-03T01:59:33;5.55;;;2.30;;
69310;SDS011;56430;48.154;16.458;2022-11-03T02:02:00;7.65;;;2.28;;
69310;SDS011;56430;48.154;16.458;2022-11-03T02:04:28;7.68;;;2.42;;
69310;SDS011;56430;48.154;16.458;2022-11-03T02:06:58;7.80;;;2.10;;
69310;SDS011;56430;48.154;16.458;2022-11-03T02:09:28;8.98;;;2.40;;
69310;SDS011;56430;48.154;16.458;2022-11-03T02:11:56;6.18;;;2.00;;
69310;SDS011;56430;48.154;16.458;2022-11-03T02:14:37;6.70;;;1.73;;
69310;SDS011;56430;48.154;16.458;2022-11-03T02:20:29;5.47;;;2.13;;
69310;SDS011;56430;48.154;16.458;2022-11-03T02:23:05;10.63;;;2.38;;
69310;SDS011;56430;48.154;16.458;2022-11-03T02:25:46;6.32;;;2.28;;
69310;SDS011;56430;48.154;16.458;2022-11-03T02:28:15;7.85;;;2.00;;
69310;SDS011;56430;48.154;16.458;2022-11-03T02:30:44;8.35;;;2.33;;
69310;SDS011;56430;48.154;16.458;2022-11-03T02:33:16;6.60;;;2.20;;
69310;SDS011;56430;48.154;16.458;2022-11-03T02:35:52;11.00;;;2.72;;
69310;SDS011;56430;48.154;16.458;2022-11-03T02:38:21;9.93;;;3.10;;
69310;SDS011;56430;48.154;16.458;2022-11-03T02:40:52;9.05;;;2.60;;
69310;SDS011;56430;48.154;16.458;2022-11-03T02:43:21;8.70;;;2.35;;
69310;SDS011;56430;48.154;16.458;2022-11-03T02:45:49;9.07;;;2.57;;
69310;SDS011;56430;48.154;16.458;2022-11-03T02:48:17;8.60;;;2.25;;
69310;SDS011;56430;48.154;16.458;2022-11-03T02:50:45;7.90;;;2.47;;
69310;SDS011;56430;48.154;16.458;2022-11-03T02:53:13;8.68;;;2.65;;
69310;SDS011;56430;48.154;16.458;2022-11-03T02:55:43;8.23;;;2.70;;
69310;SDS011;56430;48.154;16.458;2022-11-03T02:58:16;6.40;;;2.40;;
69310;SDS011;56430;48.154;16.458;2022-11-03T03:00:46;8.68;;;2.60;;
69310;SDS011;56430;48.154;16.458;2022-11-03T03:03:16;8.60;;;2.30;;
69310;SDS011;56430;48.154;16.458;2022-11-03T03:05:47;6.22;;;2.38;;
69310;SDS011;56430;48.154;16.458;2022-11-03T03:08:16;6.88;;;2.50;;
69310;SDS011;56430;48.154;16.458;2022-11-03T03:10:47;7.43;;;2.27;;
69310;SDS011;56430;48.154;16.458;2022-11-03T03:13:17;11.15;;;3.00;;
69310;SDS011;56430;48.154;16.458;2022-11-03T03:15:46;7.75;;;2.60;;
69310;SDS011;56430;48.154;16.458;2022-11-03T03:18:15;6.43;;;2.33;;
69310;SDS011;56430;48.154;16.458;2022-11-03T03:20:49;6.97;;;2.30;;
69310;SDS011;56430;48.154;16.458;2022-11-03T03:23:20;6.30;;;2.03;;
69310;SDS011;56430;48.154;16.458;2022-11-03T03:25:49;8.93;;;2.72;;
69310;SDS011;56430;48.154;16.458;2022-11-03T03:28:23;8.05;;;2.78;;
69310;SDS011;56430;48.154;16.458;2022-11-03T03:30:51;10.02;;;2.60;;
69310;SDS011;56430;48.154;16.458;2022-11-03T03:33:20;8.68;;;2.70;;
69310;SDS011;56430;48.154;16.458;2022-11-03T03:35:48;5.87;;;2.23;;
69310;SDS011;56430;48.154;16.458;2022-11-03T03:38:17;7.93;;;2.22;;
69310;SDS011;56430;48.154;16.458;2022-11-03T03:40:49;8.80;;;2.80;;
69310;SDS011;56430;48.154;16.458;2022-11-03T03:43:17;10.15;;;2.40;;
69310;SDS011;56430;48.154;16.458;2022-11-03T03:45:47;7.78;;;2.50;;
69310;SDS011;56430;48.154;16.458;2022-11-03T03:48:18;7.23;;;2.37;;
69310;SDS011;56430;48.154;16.458;2022-11-03T03:50:45;6.15;;;2.35;;
69310;SDS011;56430;48.154;16.458;2022-11-03T03:53:14;8.48;;;2.28;;
69310;SDS011;56430;48.154;16.458;2022-11-03T03:55:43;7.03;;;2.40;;
69310;SDS011;56430;48.154;16.458;2022-11-03T03:58:13;9.93;;;2.55;;
69310;SDS011;56430;48.154;16.458;2022-11-03T04:00:41;6.17;;;2.40;;
69310;SDS011;56430;48.154;16.458;2022-11-03T04:03:11;9.38;;;2.60;;
69310;SDS011;56430;48.154;16.458;2022-11-03T04:05:40;9.40;;;2.65;;
69310;SDS011;56430;48.154;16.458;2022-11-03T04:08:08;6.55;;;2.53;;
69310;SDS011;56430;48.154;16.458;2022-11-03T04:10:35;7.95;;;2.55;;
69310;SDS011;56430;48.154;16.458;2022-11-03T04:13:02;7.60;;;2.23;;
69310;SDS011;56430;48.154;16.458;2022-11-03T04:15:47;8.63;;;3.00;;
69310;SDS011;56430;48.154;16.458;2022-11-03T04:18:33;7.63;;;2.50;;
69310;SDS011;56430;48.154;16.458;2022-11-03T04:21:17;6.22;;;2.70;;
69310;SDS011;56430;48.154;16.458;2022-11-03T04:24:02;8.75;;;2.60;;
69310;SDS011;56430;48.154;16.458;2022-11-03T04:26:29;7.00;;;2.43;;
69310;SDS011;56430;48.154;16.458;2022-11-03T04:28:56;7.85;;;2.60;;
69310;SDS011;56430;48.154;16.458;2022-11-03T04:31:24;7.38;;;2.42;;
69310;SDS011;56430;48.154;16.458;2022-11-03T04:33:53;7.57;;;2.47;;
69310;SDS011;56430;48.154;16.458;2022-11-03T04:36:21;7.28;;;2.85;;
69310;SDS011;56430;48.154;16.458;2022-11-03T04:38:50;6.13;;;2.20;;
69310;SDS011;56430;48.154;16.458;2022-11-03T04:41:19;5.85;;;2.10;;
69310;SDS011;56430;48.154;16.458;2022-11-03T04:43:47;6.70;;;2.40;;
69310;SDS011;56430;48.154;16.458;2022-11-03T04:46:16;9.05;;;2.17;;
69310;SDS011;56430;48.154;16.458;2022-11-03T04:48:50;6.10;;;2.17;;
69310;SDS011;56430;48.154;16.458;2022-11-03T04:51:21;5.33;;;2.03;;
69310;SDS011;56430;48.154;16.458;2022-11-03T04:53:51;8.40;;;2.70;;
69310;SDS011;56430;48.154;16.458;2022-11-03T04:56:21;6.82;;;2.50;;
69310;SDS011;56430;48.154;16.458;2022-11-03T04:58:49;5.88;;;2.08;;
69310;SDS011;56430;48.154;16.458;2022-11-03T05:01:17;7.72;;;2.17;;
69310;SDS011;56430;48.154;16.458;2022-11-03T05:03:47;6.03;;;2.30;;
69310;SDS011;56430;48.154;16.458;2022-11-03T05:06:15;7.82;;;2.20;;
69310;SDS011;56430;48.154;16.458;2022-11-03T05:08:45;7.78;;;2.40;;
69310;SDS011;56430;48.154;16.458;2022-11-03T05:11:17;7.97;;;2.10;;
69310;SDS011;56430;48.154;16.458;2022-11-03T05:13:46;7.80;;;2.22;;
69310;SDS011;56430;48.154;16.458;2022-11-03T05:16:14;6.83;;;2.10;;
69310;SDS011;56430;48.154;16.458;2022-11-03T05:18:42;10.20;;;3.88;;
69310;SDS011;56430;48.154;16.458;2022-11-03T05:21:11;10.13;;;3.00;;
69310;SDS011;56430;48.154;16.458;2022-11-03T05:23:41;7.45;;;2.17;;
69310;SDS011;56430;48.154;16.458;2022-11-03T05:26:13;5.30;;;2.55;;
69310;SDS011;56430;48.154;16.458;2022-11-03T05:28:43;7.80;;;2.40;;
69310;SDS011;56430;48.154;16.458;2022-11-03T05:31:19;12.05;;;3.28;;
69310;SDS011;56430;48.154;16.458;2022-11-03T05:33:48;10.10;;;3.10;;
69310;SDS011;56430;48.154;16.458;2022-11-03T05:36:18;8.10;;;2.83;;
69310;SDS011;56430;48.154;16.458;2022-11-03T05:38:47;7.60;;;2.60;;
69310;SDS011;56430;48.154;16.458;2022-11-03T05:41:20;10.57;;;3.07;;
69310;SDS011;56430;48.154;16.458;2022-11-03T05:43:51;9.45;;;2.97;;
69310;SDS011;56430;48.154;16.458;2022-11-03T05:46:20;9.60;;;3.60;;
69310;SDS011;56430;48.154;16.458;2022-11-03T05:48:48;9.85;;;3.40;;
69310;SDS011;56430;48.154;16.458;2022-11-03T05:51:17;9.95;;;2.95;;
69310;SDS011;56430;48.154;16.458;2022-11-03T05:53:47;6.57;;;3.03;;
69310;SDS011;56430;48.154;16.458;2022-11-03T05:56:19;9.20;;;3.35;;
69310;SDS011;56430;48.154;16.458;2022-11-03T05:58:48;8.27;;;3.17;;
69310;SDS011;56430;48.154;16.458;2022-11-03T06:01:18;8.55;;;2.97;;
69310;SDS011;56430;48.154;16.458;2022-11-03T06:03:49;8.65;;;4.10;;
69310;SDS011;56430;48.154;16.458;2022-11-03T06:06:17;8.43;;;3.10;;
69310;SDS011;56430;48.154;16.458;2022-11-03T06:08:47;8.57;;;2.53;;
69310;SDS011;56430;48.154;16.458;2022-11-03T06:11:15;9.40;;;2.45;;
69310;SDS011;56430;48.154;16.458;2022-11-03T06:13:48;7.45;;;2.15;;
69310;SDS011;56430;48.154;16.458;2022-11-03T06:16:21;9.18;;;2.47;;
69310;SDS011;56430;48.154;16.458;2022-11-03T06:18:58;8.13;;;2.80;;
69310;SDS011;56430;48.154;16.458;2022-11-03T06:21:26;10.82;;;2.70;;
69310;SDS011;56430;48.154;16.458;2022-11-03T06:23:53;7.40;;;2.65;;
69310;SDS011;56430;48.154;16.458;2022-11-03T06:26:23;8.57;;;2.80;;
69310;SDS011;56430;48.154;16.458;2022-11-03T06:28:51;8.35;;;2.85;;
69310;SDS011;56430;48.154;16.458;2022-11-03T06:31:20;9.70;;;2.87;;
69310;SDS011;56430;48.154;16.458;2022-11-03T06:33:48;7.38;;;2.65;;
69310;SDS011;56430;48.154;16.458;2022-11-03T06:36:17;9.10;;;3.15;;
69310;SDS011;56430;48.154;16.458;2022-11-03T06:38:47;11.85;;;3.38;;
69310;SDS011;56430;48.154;16.458;2022-11-03T06:41:19;11.00;;;3.53;;
69310;SDS011;56430;48.154;16.458;2022-11-03T06:43:51;8.77;;;3.07;;
69310;SDS011;56430;48.154;16.458;2022-11-03T06:46:19;9.18;;;3.38;;
69310;SDS011;56430;48.154;16.458;2022-11-03T06:48:48;10.75;;;3.58;;
69310;SDS011;56430;48.154;16.458;2022-11-03T06:51:17;9.15;;;3.65;;
69310;SDS011;56430;48.154;16.458;2022-11-03T06:53:46;21.75;;;3.65;;
69310;SDS011;56430;48.154;16.458;2022-11-03T06:56:14;8.57;;;3.50;;
69310;SDS011;56430;48.154;16.458;2022-11-03T06:58:46;8.60;;;3.40;;
69310;SDS011;56430;48.154;16.458;2022-11-03T07:01:15;6.47;;;2.90;;
69310;SDS011;56430;48.154;16.458;2022-11-03T07:03:44;10.85;;;3.33;;
69310;SDS011;56430;48.154;16.458;2022-11-03T07:06:13;12.40;;;3.10;;
69310;SDS011;56430;48.154;16.458;2022-11-03T07:08:44;9.03;;;3.47;;
69310;SDS011;56430;48.154;16.458;2022-11-03T07:11:14;10.35;;;3.40;;
69310;SDS011;56430;48.154;16.458;2022-11-03T07:13:42;11.85;;;3.03;;
69310;SDS011;56430;48.154;16.458;2022-11-03T07:16:14;8.05;;;2.83;;
69310;SDS011;56430;48.154;16.458;2022-11-03T07:18:44;7.25;;;2.53;;
69310;SDS011;56430;48.154;16.458;2022-11-03T07:21:20;10.10;;;2.57;;
69310;SDS011;56430;48.154;16.458;2022-11-03T07:23:51;7.35;;;2.40;;
69310;SDS011;56430;48.154;16.458;2022-11-03T07:26:19;7.50;;;2.45;;
69310;SDS011;56430;48.154;16.458;2022-11-03T07:28:46;7.75;;;2.40;;
69310;SDS011;56430;48.154;16.458;2022-11-03T07:31:18;7.10;;;2.10;;
69310;SDS011;56430;48.154;16.458;2022-11-03T07:33:46;5.50;;;2.10;;
69310;SDS011;56430;48.154;16.458;2022-11-03T07:36:15;6.60;;;2.10;;
69310;SDS011;56430;48.154;16.458;2022-11-03T07:38:46;6.65;;;2.00;;
69310;SDS011;56430;48.154;16.458;2022-11-03T07:41:14;9.43;;;2.38;;
69310;SDS011;56430;48.154;16.458;2022-11-03T07:43:45;10.30;;;2.55;;
69310;SDS011;56430;48.154;16.458;2022-11-03T07:46:20;5.50;;;2.30;;
69310;SDS011;56430;48.154;16.458;2022-11-03T07:48:49;7.75;;;2.30;;
69310;SDS011;56430;48.154;16.458;2022-11-03T07:51:21;6.53;;;2.20;;
69310;SDS011;56430;48.154;16.458;2022-11-03T07:53:49;5.85;;;2.03;;
69310;SDS011;56430;48.154;16.458;2022-11-03T07:56:19;6.43;;;2.33;;
69310;SDS011;56430;48.154;16.458;2022-11-03T07:58:48;9.77;;;2.87;;
69310;SDS011;56430;48.154;16.458;2022-11-03T08:04:04;8.52;;;2.45;;
69310;SDS011;56430;48.154;16.458;2022-11-03T08:06:33;8.52;;;2.60;;
69310;SDS011;56430;48.154;16.458;2022-11-03T08:09:00;6.75;;;2.50;;
69310;SDS011;56430;48.154;16.458;2022-11-03T08:11:27;7.87;;;2.70;;
69310;SDS011;56430;48.154;16.458;2022-11-03T08:13:55;5.70;;;2.58;;
69310;SDS011;56430;48.154;16.458;2022-11-03T08:16:22;6.65;;;2.53;;
69310;SDS011;56430;48.154;16.458;2022-11-03T08:18:51;7.05;;;2.80;;
69310;SDS011;56430;48.154;16.458;2022-11-03T08:21:18;6.88;;;2.88;;
69310;SDS011;56430;48.154;16.458;2022-11-03T08:23:46;10.13;;;3.07;;
69310;SDS011;56430;48.154;16.458;2022-11-03T08:26:13;7.20;;;3.33;;
69310;SDS011;56430;48.154;16.458;2022-11-03T08:28:40;8.05;;;3.00;;
69310;SDS011;56430;48.154;16.458;2022-11-03T08:31:08;6.93;;;2.78;;
69310;SDS011;56430;48.154;16.458;2022-11-03T08:33:35;6.03;;;2.92;;
69310;SDS011;56430;48.154;16.458;2022-11-03T08:36:06;9.00;;;2.97;;
69310;SDS011;56430;48.154;16.458;2022-11-03T08:38:34;7.97;;;2.80;;
69310;SDS011;56430;48.154;16.458;2022-11-03T08:41:01;7.73;;;2.73;;
69310;SDS011;56430;48.154;16.458;2022-11-03T08:43:29;11.20;;;2.83;;
69310;SDS011;56430;48.154;16.458;2022-11-03T08:45:56;6.10;;;2.88;;
69310;SDS011;56430;48.154;16.458;2022-11-03T08:48:25;7.22;;;2.83;;
69310;SDS011;56430;48.154;16.458;2022-11-03T08:50:53;7.25;;;3.13;;
69310;SDS011;56430;48.154;16.458;2022-11-03T08:53:22;7.05;;;3.40;;
69310;SDS011;56430;48.154;16.458;2022-11-03T08:55:51;8.97;;;2.80;;
69310;SDS011;56430;48.154;16.458;2022-11-03T08:58:18;5.03;;;2.00;;
69310;SDS011;56430;48.154;16.458;2022-11-03T09:00:45;8.15;;;2.00;;
69310;SDS011;56430;48.154;16.458;2022-11-03T09:03:13;4.90;;;1.63;;
69310;SDS011;56430;48.154;16.458;2022-11-03T09:05:40;7.40;;;1.83;;
69310;SDS011;56430;48.154;16.458;2022-11-03T09:08:07;8.57;;;2.00;;
69310;SDS011;56430;48.154;16.458;2022-11-03T09:10:36;5.33;;;1.70;;
69310;SDS011;56430;48.154;16.458;2022-11-03T09:13:03;6.22;;;1.40;;
69310;SDS011;56430;48.154;16.458;2022-11-03T09:15:31;8.05;;;1.40;;
69310;SDS011;56430;48.154;16.458;2022-11-03T09:17:58;7.43;;;1.67;;
69310;SDS011;56430;48.154;16.458;2022-11-03T09:20:25;7.13;;;1.50;;
69310;SDS011;56430;48.154;16.458;2022-11-03T09:22:53;6.63;;;1.37;;
69310;SDS011;56430;48.154;16.458;2022-11-03T09:25:20;8.07;;;1.50;;
69310;SDS011;56430;48.154;16.458;2022-11-03T09:27:49;8.57;;;1.40;;
69310;SDS011;56430;48.154;16.458;2022-11-03T09:30:16;6.18;;;1.67;;
69310;SDS011;56430;48.154;16.458;2022-11-03T09:36:02;6.80;;;1.33;;
69310;SDS011;56430;48.154;16.458;2022-11-03T09:38:32;7.35;;;2.03;;
69310;SDS011;56430;48.154;16.458;2022-11-03T09:41:01;5.70;;;1.52;;
69310;SDS011;56430;48.154;16.458;2022-11-03T09:43:37;7.22;;;1.85;;
69310;SDS011;56430;48.154;16.458;2022-11-03T09:46:11;6.65;;;1.90;;
69310;SDS011;56430;48.154;16.458;2022-11-03T09:49:09;8.23;;;1.63;;
69310;SDS011;56430;48.154;16.458;2022-11-03T09:52:51;3.80;;;1.50;;
69310;SDS011;56430;48.154;16.458;2022-11-03T09:55:37;10.57;;;1.55;;
69310;SDS011;56430;48.154;16.458;2022-11-03T09:58:34;4.18;;;1.40;;
69310;SDS011;56430;48.154;16.458;2022-11-03T10:04:26;6.73;;;1.70;;
69310;SDS011;56430;48.154;16.458;2022-11-03T10:06:57;6.97;;;1.15;;
69310;SDS011;56430;48.154;16.458;2022-11-03T10:09:25;5.47;;;1.17;;
69310;SDS011;56430;48.154;16.458;2022-11-03T10:11:54;6.90;;;1.40;;
69310;SDS011;56430;48.154;16.458;2022-11-03T10:14:23;8.90;;;1.33;;
69310;SDS011;56430;48.154;16.458;2022-11-03T10:16:51;7.70;;;1.47;;
69310;SDS011;56430;48.154;16.458;2022-11-03T10:19:24;5.30;;;0.95;;
69310;SDS011;56430;48.154;16.458;2022-11-03T10:21:52;11.20;;;1.40;;
69310;SDS011;56430;48.154;16.458;2022-11-03T10:24:19;3.47;;;0.77;;
69310;SDS011;56430;48.154;16.458;2022-11-03T10:26:47;9.70;;;1.15;;
69310;SDS011;56430;48.154;16.458;2022-11-03T10:29:16;5.23;;;0.60;;
69310;SDS011;56430;48.154;16.458;2022-11-03T10:31:48;10.95;;;0.75;;
69310;SDS011;56430;48.154;16.458;2022-11-03T10:34:23;6.53;;;0.95;;
69310;SDS011;56430;48.154;16.458;2022-11-03T10:37:12;5.75;;;0.73;;
69310;SDS011;56430;48.154;16.458;2022-11-03T10:39:44;3.65;;;0.70;;
69310;SDS011;56430;48.154;16.458;2022-11-03T10:42:15;8.17;;;0.80;;
69310;SDS011;56430;48.154;16.458;2022-11-03T10:44:44;4.13;;;0.50;;
69310;SDS011;56430;48.154;16.458;2022-11-03T10:47:21;4.10;;;0.75;;
69310;SDS011;56430;48.154;16.458;2022-11-03T10:49:58;7.10;;;0.77;;
69310;SDS011;56430;48.154;16.458;2022-11-03T10:52:26;5.53;;;1.17;;
69310;SDS011;56430;48.154;16.458;2022-11-03T10:54:55;3.57;;;0.73;;
69310;SDS011;56430;48.154;16.458;2022-11-03T10:57:24;5.20;;;0.98;;
69310;SDS011;56430;48.154;16.458;2022-11-03T10:59:53;9.38;;;1.45;;
69310;SDS011;56430;48.154;16.458;2022-11-03T11:02:22;6.50;;;1.08;;
69310;SDS011;56430;48.154;16.458;2022-11-03T11:04:53;5.18;;;1.00;;
69310;SDS011;56430;48.154;16.458;2022-11-03T11:07:24;4.80;;;1.47;;
69310;SDS011;56430;48.154;16.458;2022-11-03T11:09:55;6.15;;;1.00;;
69310;SDS011;56430;48.154;16.458;2022-11-03T11:12:22;6.35;;;0.90;;
69310;SDS011;56430;48.154;16.458;2022-11-03T11:14:54;6.85;;;1.35;;
69310;SDS011;56430;48.154;16.458;2022-11-03T11:35:19;3.57;;;1.00;;
69310;SDS011;56430;48.154;16.458;2022-11-03T11:44:56;6.15;;;1.10;;
69310;SDS011;56430;48.154;16.458;2022-11-03T11:47:25;9.43;;;1.65;;
69310;SDS011;56430;48.154;16.458;2022-11-03T11:53:12;5.28;;;1.00;;
69310;SDS011;56430;48.154;16.458;2022-11-03T11:55:45;7.18;;;1.45;;
69310;SDS011;56430;48.154;16.458;2022-11-03T11:58:20;12.00;;;1.38;;
69310;SDS011;56430;48.154;16.458;2022-11-03T12:00:51;6.88;;;1.00;;
69310;SDS011;56430;48.154;16.458;2022-11-03T12:03:21;4.87;;;1.30;;
69310;SDS011;56430;48.154;16.458;2022-11-03T12:05:52;6.65;;;0.82;;
69310;SDS011;56430;48.154;16.458;2022-11-03T12:08:23;6.70;;;1.35;;
69310;SDS011;56430;48.154;16.458;2022-11-03T12:10:53;3.13;;;0.80;;
69310;SDS011;56430;48.154;16.458;2022-11-03T12:13:34;4.65;;;1.00;;
69310;SDS011;56430;48.154;16.458;2022-11-03T12:16:29;4.87;;;0.90;;
69310;SDS011;56430;48.154;16.458;2022-11-03T12:22:01;5.07;;;0.95;;
69310;SDS011;56430;48.154;16.458;2022-11-03T12:24:35;6.53;;;0.90;;
69310;SDS011;56430;48.154;16.458;2022-11-03T12:27:16;3.90;;;1.00;;
69310;SDS011;56430;48.154;16.458;2022-11-03T12:30:02;3.77;;;0.97;;
69310;SDS011;56430;48.154;16.458;2022-11-03T12:32:30;4.15;;;1.02;;
69310;SDS011;56430;48.154;16.458;2022-11-03T12:34:58;4.97;;;0.90;;
69310;SDS011;56430;48.154;16.458;2022-11-03T12:37:25;3.60;;;1.35;;
69310;SDS011;56430;48.154;16.458;2022-11-03T12:39:54;5.03;;;0.93;;
69310;SDS011;56430;48.154;16.458;2022-11-03T12:42:21;4.00;;;0.90;;
69310;SDS011;56430;48.154;16.458;2022-11-03T12:44:49;4.68;;;1.35;;
69310;SDS011;56430;48.154;16.458;2022-11-03T12:47:17;5.93;;;1.05;;
69310;SDS011;56430;48.154;16.458;2022-11-03T12:49:45;2.95;;;0.88;;
69310;SDS011;56430;48.154;16.458;2022-11-03T12:52:12;7.20;;;1.23;;
69310;SDS011;56430;48.154;16.458;2022-11-03T12:54:39;6.17;;;1.37;;
69310;SDS011;56430;48.154;16.458;2022-11-03T12:57:09;5.35;;;1.17;;
69310;SDS011;56430;48.154;16.458;2022-11-03T12:59:36;3.55;;;0.85;;
69310;SDS011;56430;48.154;16.458;2022-11-03T13:02:03;7.97;;;1.33;;
69310;SDS011;56430;48.154;16.458;2022-11-03T13:04:30;4.88;;;1.30;;
69310;SDS011;56430;48.154;16.458;2022-11-03T13:06:57;5.30;;;1.43;;
69310;SDS011;56430;48.154;16.458;2022-11-03T13:09:25;4.82;;;1.88;;
69310;SDS011;56430;48.154;16.458;2022-11-03T13:11:52;3.97;;;1.48;;
69310;SDS011;56430;48.154;16.458;2022-11-03T13:14:38;5.18;;;1.40;;
69310;SDS011;56430;48.154;16.458;2022-11-03T13:17:05;6.57;;;1.92;;
69310;SDS011;56430;48.154;16.458;2022-11-03T13:19:33;6.37;;;1.30;;
69310;SDS011;56430;48.154;16.458;2022-11-03T13:22:00;5.78;;;1.25;;
69310;SDS011;56430;48.154;16.458;2022-11-03T13:24:27;5.38;;;1.63;;
69310;SDS011;56430;48.154;16.458;2022-11-03T13:26:54;5.13;;;1.15;;
69310;SDS011;56430;48.154;16.458;2022-11-03T13:29:21;7.25;;;1.70;;
69310;SDS011;56430;48.154;16.458;2022-11-03T13:31:50;5.77;;;1.50;;
69310;SDS011;56430;48.154;16.458;2022-11-03T13:34:17;5.53;;;1.45;;
69310;SDS011;56430;48.154;16.458;2022-11-03T13:36:45;7.40;;;1.70;;
69310;SDS011;56430;48.154;16.458;2022-11-03T13:39:12;4.97;;;1.60;;
69310;SDS011;56430;48.154;16.458;2022-11-03T13:41:39;7.13;;;2.03;;
69310;SDS011;56430;48.154;16.458;2022-11-03T13:44:06;6.53;;;1.37;;
69310;SDS011;56430;48.154;16.458;2022-11-03T13:46:34;4.15;;;1.30;;
69310;SDS011;56430;48.154;16.458;2022-11-03T13:49:03;5.57;;;1.42;;
69310;SDS011;56430;48.154;16.458;2022-11-03T13:51:30;5.43;;;1.17;;
69310;SDS011;56430;48.154;16.458;2022-11-03T13:53:58;7.70;;;1.42;;
69310;SDS011;56430;48.154;16.458;2022-11-03T13:56:25;6.20;;;1.87;;
69310;SDS011;56430;48.154;16.458;2022-11-03T13:58:52;3.97;;;1.27;;
69310;SDS011;56430;48.154;16.458;2022-11-03T14:01:20;6.05;;;1.90;;
69310;SDS011;56430;48.154;16.458;2022-11-03T14:03:47;6.03;;;1.20;;
69310;SDS011;56430;48.154;16.458;2022-11-03T14:06:16;7.32;;;1.73;;
69310;SDS011;56430;48.154;16.458;2022-11-03T14:08:43;5.37;;;1.47;;
69310;SDS011;56430;48.154;16.458;2022-11-03T14:11:10;4.38;;;1.40;;
69310;SDS011;56430;48.154;16.458;2022-11-03T14:13:55;7.20;;;1.42;;
69310;SDS011;56430;48.154;16.458;2022-11-03T14:16:22;7.75;;;1.27;;
69310;SDS011;56430;48.154;16.458;2022-11-03T14:18:49;6.60;;;1.80;;
69310;SDS011;56430;48.154;16.458;2022-11-03T14:21:18;6.10;;;1.50;;
69310;SDS011;56430;48.154;16.458;2022-11-03T14:23:48;9.15;;;2.03;;
69310;SDS011;56430;48.154;16.458;2022-11-03T14:26:16;4.65;;;1.60;;
69310;SDS011;56430;48.154;16.458;2022-11-03T14:28:43;9.70;;;1.60;;
69310;SDS011;56430;48.154;16.458;2022-11-03T14:31:10;6.68;;;1.23;;
69310;SDS011;56430;48.154;16.458;2022-11-03T14:33:37;3.77;;;1.33;;
69310;SDS011;56430;48.154;16.458;2022-11-03T14:36:05;5.97;;;1.63;;
69310;SDS011;56430;48.154;16.458;2022-11-03T14:38:33;7.50;;;1.67;;
69310;SDS011;56430;48.154;16.458;2022-11-03T14:41:01;13.77;;;2.05;;
69310;SDS011;56430;48.154;16.458;2022-11-03T14:43:47;7.80;;;1.92;;
69310;SDS011;56430;48.154;16.458;2022-11-03T14:46:15;6.83;;;1.63;;
69310;SDS011;56430;48.154;16.458;2022-11-03T14:48:42;6.22;;;1.63;;
69310;SDS011;56430;48.154;16.458;2022-11-03T14:51:09;4.82;;;1.50;;
69310;SDS011;56430;48.154;16.458;2022-11-03T14:53:38;4.22;;;1.48;;
69310;SDS011;56430;48.154;16.458;2022-11-03T14:56:05;6.40;;;1.70;;
69310;SDS011;56430;48.154;16.458;2022-11-03T14:58:33;8.73;;;1.43;;
69310;SDS011;56430;48.154;16.458;2022-11-03T15:01:00;8.52;;;1.85;;
69310;SDS011;56430;48.154;16.458;2022-11-03T15:03:27;3.88;;;1.38;;
69310;SDS011;56430;48.154;16.458;2022-11-03T15:05:54;7.13;;;1.45;;
69310;SDS011;56430;48.154;16.458;2022-11-03T15:08:22;4.43;;;1.52;;
69310;SDS011;56430;48.154;16.458;2022-11-03T15:10:51;7.03;;;1.67;;
69310;SDS011;56430;48.154;16.458;2022-11-03T15:13:18;6.93;;;1.60;;
69310;SDS011;56430;48.154;16.458;2022-11-03T15:15:46;7.85;;;1.48;;
69310;SDS011;56430;48.154;16.458;2022-11-03T15:18:13;3.85;;;1.45;;
69310;SDS011;56430;48.154;16.458;2022-11-03T15:20:40;5.32;;;1.70;;
69310;SDS011;56430;48.154;16.458;2022-11-03T15:23:07;7.27;;;1.50;;
69310;SDS011;56430;48.154;16.458;2022-11-03T15:25:34;4.88;;;1.77;;
69310;SDS011;56430;48.154;16.458;2022-11-03T15:28:03;4.88;;;1.52;;
69310;SDS011;56430;48.154;16.458;2022-11-03T15:30:31;4.45;;;1.38;;
69310;SDS011;56430;48.154;16.458;2022-11-03T15:32:58;4.88;;;1.58;;